sensor_id;sensor_type;location;lat;lon;timestamp;P1;durP1;ratioP1;P2;durP2;ratioP2
19664;SDS011;9980;51.020;7.772;2023-04-01T00:02:26;4.10;;;1.87;;
19664;SDS011;9980;51.020;7.772;2023-04-01T00:04:53;3.13;;;1.50;;
19664;SDS011;9980;51.020;7.772;2023-04-01T00:07:20;2.17;;;1.43;;
19664;SDS011;9980;51.020;7.772;2023-04-01T00:09:47;3.23;;;1.40;;
19664;SDS011;9980;51.020;7.772;2023-04-01T00:12:14;1.40;;;1.30;;
19664;SDS011;9980;51.020;7.772;2023-04-01T00:14:40;2.90;;;1.30;;
19664;SDS011;9980;51.020;7.772;2023-04-01T00:17:07;2.63;;;1.47;;
19664;SDS011;9980;51.020;7.772;2023-04-01T00:19:34;1.87;;;1.70;;
19664;SDS011;9980;51.020;7.772;2023-04-01T00:22:01;1.30;;;1.30;;
19664;SDS011;9980;51.020;7.772;2023-04-01T00:24:28;4.03;;;1.60;;
19664;SDS011;9980;51.020;7.772;2023-04-01T00:26:55;2.77;;;1.30;;
19664;SDS011;9980;51.020;7.772;2023-04-01T00:29:22;1.90;;;1.37;;
19664;SDS011;9980;51.020;7.772;2023-04-01T00:31:50;2.73;;;1.40;;
19664;SDS011;9980;51.020;7.772;2023-04-01T00:34:17;2.73;;;1.40;;
19664;SDS011;9980;51.020;7.772;2023-04-01T00:36:44;3.43;;;1.50;;
19664;SDS011;9980;51.020;7.772;2023-04-01T00:39:10;1.43;;;1.33;;
19664;SDS011;9980;51.020;7.772;2023-04-01T00:41:37;1.50;;;1.40;;
19664;SDS011;9980;51.020;7.772;2023-04-01T00:44:15;1.50;;;1.40;;
19664;SDS011;9980;51.020;7.772;2023-04-01T00:46:52;2.83;;;1.60;;
19664;SDS011;9980;51.020;7.772;2023-04-01T00:49:20;1.40;;;1.30;;
19664;SDS011;9980;51.020;7.772;2023-04-01T00:51:55;1.93;;;1.30;;
19664;SDS011;9980;51.020;7.772;2023-04-01T00:54:26;2.80;;;1.47;;
19664;SDS011;9980;51.020;7.772;2023-04-01T00:57:05;1.97;;;1.50;;
19664;SDS011;9980;51.020;7.772;2023-04-01T00:59:49;2.80;;;1.23;;
19664;SDS011;9980;51.020;7.772;2023-04-01T01:02:21;1.90;;;1.40;;
19664;SDS011;9980;51.020;7.772;2023-04-01T01:04:49;1.30;;;1.20;;
19664;SDS011;9980;51.020;7.772;2023-04-01T01:07:37;1.40;;;1.30;;
19664;SDS011;9980;51.020;7.772;2023-04-01T01:10:31;2.40;;;1.53;;
19664;SDS011;9980;51.020;7.772;2023-04-01T01:13:10;1.83;;;1.40;;
19664;SDS011;9980;51.020;7.772;2023-04-01T01:16:04;1.57;;;1.47;;
19664;SDS011;9980;51.020;7.772;2023-04-01T01:18:50;1.40;;;1.30;;
19664;SDS011;9980;51.020;7.772;2023-04-01T01:21:41;1.50;;;1.40;;
19664;SDS011;9980;51.020;7.772;2023-04-01T01:27:25;3.47;;;1.30;;
19664;SDS011;9980;51.020;7.772;2023-04-01T01:30:08;1.60;;;1.37;;
19664;SDS011;9980;51.020;7.772;2023-04-01T01:33:12;1.27;;;1.23;;
19664;SDS011;9980;51.020;7.772;2023-04-01T01:36:12;1.50;;;1.40;;
19664;SDS011;9980;51.020;7.772;2023-04-01T01:38:42;1.67;;;1.47;;
19664;SDS011;9980;51.020;7.772;2023-04-01T01:41:12;1.40;;;1.30;;
19664;SDS011;9980;51.020;7.772;2023-04-01T01:43:43;1.73;;;1.10;;
19664;SDS011;9980;51.020;7.772;2023-04-01T01:46:17;1.63;;;1.30;;
19664;SDS011;9980;51.020;7.772;2023-04-01T01:48:48;1.40;;;1.30;;
19664;SDS011;9980;51.020;7.772;2023-04-01T01:51:18;1.60;;;1.30;;
19664;SDS011;9980;51.020;7.772;2023-04-01T01:53:48;2.60;;;1.20;;
19664;SDS011;9980;51.020;7.772;2023-04-01T01:56:17;1.37;;;1.27;;
19664;SDS011;9980;51.020;7.772;2023-04-01T01:58:52;3.10;;;1.57;;
19664;SDS011;9980;51.020;7.772;2023-04-01T02:01:28;4.93;;;1.37;;
19664;SDS011;9980;51.020;7.772;2023-04-01T02:04:06;2.10;;;1.30;;
19664;SDS011;9980;51.020;7.772;2023-04-01T02:06:37;1.83;;;1.37;;
19664;SDS011;9980;51.020;7.772;2023-04-01T02:09:12;1.40;;;1.30;;
19664;SDS011;9980;51.020;7.772;2023-04-01T02:11:41;1.40;;;1.30;;
19664;SDS011;9980;51.020;7.772;2023-04-01T02:14:22;3.17;;;1.53;;
19664;SDS011;9980;51.020;7.772;2023-04-01T02:17:11;1.80;;;1.33;;
19664;SDS011;9980;51.020;7.772;2023-04-01T02:19:48;1.40;;;1.30;;
19664;SDS011;9980;51.020;7.772;2023-04-01T02:22:24;1.40;;;1.30;;
19664;SDS011;9980;51.020;7.772;2023-04-01T02:25:00;1.40;;;1.30;;
19664;SDS011;9980;51.020;7.772;2023-04-01T02:27:34;3.27;;;1.30;;
19664;SDS011;9980;51.020;7.772;2023-04-01T02:30:02;2.40;;;1.83;;
19664;SDS011;9980;51.020;7.772;2023-04-01T02:32:30;1.50;;;1.20;;
19664;SDS011;9980;51.020;7.772;2023-04-01T02:34:59;1.37;;;1.27;;
19664;SDS011;9980;51.020;7.772;2023-04-01T02:37:32;2.23;;;1.30;;
19664;SDS011;9980;51.020;7.772;2023-04-01T02:40:05;1.27;;;1.27;;
19664;SDS011;9980;51.020;7.772;2023-04-01T02:42:34;1.50;;;1.40;;
19664;SDS011;9980;51.020;7.772;2023-04-01T02:45:01;1.50;;;1.40;;
19664;SDS011;9980;51.020;7.772;2023-04-01T02:47:29;1.40;;;1.30;;
19664;SDS011;9980;51.020;7.772;2023-04-01T02:49:56;2.57;;;1.20;;
19664;SDS011;9980;51.020;7.772;2023-04-01T02:52:25;1.53;;;1.27;;
19664;SDS011;9980;51.020;7.772;2023-04-01T02:54:53;1.40;;;1.30;;
19664;SDS011;9980;51.020;7.772;2023-04-01T02:57:20;1.30;;;1.20;;
19664;SDS011;9980;51.020;7.772;2023-04-01T02:59:48;1.27;;;1.20;;
19664;SDS011;9980;51.020;7.772;2023-04-01T03:02:15;1.27;;;1.20;;
19664;SDS011;9980;51.020;7.772;2023-04-01T03:04:43;1.40;;;1.30;;
19664;SDS011;9980;51.020;7.772;2023-04-01T03:07:11;1.33;;;1.23;;
19664;SDS011;9980;51.020;7.772;2023-04-01T03:09:37;1.93;;;1.40;;
19664;SDS011;9980;51.020;7.772;2023-04-01T03:12:05;2.37;;;1.30;;
19664;SDS011;9980;51.020;7.772;2023-04-01T03:14:42;2.60;;;1.40;;
19664;SDS011;9980;51.020;7.772;2023-04-01T03:17:09;1.40;;;1.30;;
19664;SDS011;9980;51.020;7.772;2023-04-01T03:19:36;1.20;;;1.20;;
19664;SDS011;9980;51.020;7.772;2023-04-01T03:22:07;2.40;;;1.40;;
19664;SDS011;9980;51.020;7.772;2023-04-01T03:24:37;1.23;;;1.20;;
19664;SDS011;9980;51.020;7.772;2023-04-01T03:27:04;1.80;;;1.10;;
19664;SDS011;9980;51.020;7.772;2023-04-01T03:29:31;1.63;;;1.20;;
19664;SDS011;9980;51.020;7.772;2023-04-01T03:31:58;1.30;;;1.20;;
19664;SDS011;9980;51.020;7.772;2023-04-01T03:34:25;1.80;;;1.37;;
19664;SDS011;9980;51.020;7.772;2023-04-01T03:36:52;2.00;;;1.33;;
19664;SDS011;9980;51.020;7.772;2023-04-01T03:39:19;1.87;;;1.20;;
19664;SDS011;9980;51.020;7.772;2023-04-01T03:41:46;1.37;;;1.27;;
19664;SDS011;9980;51.020;7.772;2023-04-01T03:44:13;1.40;;;1.30;;
19664;SDS011;9980;51.020;7.772;2023-04-01T03:46:40;1.47;;;1.37;;
19664;SDS011;9980;51.020;7.772;2023-04-01T03:49:08;3.47;;;1.30;;
19664;SDS011;9980;51.020;7.772;2023-04-01T03:51:39;1.60;;;1.33;;
19664;SDS011;9980;51.020;7.772;2023-04-01T03:54:09;1.43;;;1.33;;
19664;SDS011;9980;51.020;7.772;2023-04-01T03:56:37;1.43;;;1.10;;
19664;SDS011;9980;51.020;7.772;2023-04-01T03:59:05;1.40;;;1.30;;
19664;SDS011;9980;51.020;7.772;2023-04-01T04:01:33;1.00;;;1.00;;
19664;SDS011;9980;51.020;7.772;2023-04-01T04:04:01;2.10;;;1.23;;
19664;SDS011;9980;51.020;7.772;2023-04-01T04:06:28;1.30;;;1.30;;
19664;SDS011;9980;51.020;7.772;2023-04-01T04:08:55;1.93;;;1.83;;
19664;SDS011;9980;51.020;7.772;2023-04-01T04:11:22;1.33;;;1.23;;
19664;SDS011;9980;51.020;7.772;2023-04-01T04:13:51;1.63;;;1.30;;
19664;SDS011;9980;51.020;7.772;2023-04-01T04:16:19;1.70;;;1.20;;
19664;SDS011;9980;51.020;7.772;2023-04-01T04:18:52;2.30;;;1.27;;
19664;SDS011;9980;51.020;7.772;2023-04-01T04:21:19;1.30;;;1.30;;
19664;SDS011;9980;51.020;7.772;2023-04-01T04:23:46;3.10;;;1.40;;
19664;SDS011;9980;51.020;7.772;2023-04-01T04:26:15;1.30;;;1.27;;
19664;SDS011;9980;51.020;7.772;2023-04-01T04:28:48;1.50;;;1.23;;
19664;SDS011;9980;51.020;7.772;2023-04-01T04:31:20;1.47;;;1.37;;
19664;SDS011;9980;51.020;7.772;2023-04-01T04:33:50;1.30;;;1.20;;
19664;SDS011;9980;51.020;7.772;2023-04-01T04:36:19;1.40;;;1.23;;
19664;SDS011;9980;51.020;7.772;2023-04-01T04:38:49;1.30;;;1.20;;
19664;SDS011;9980;51.020;7.772;2023-04-01T04:41:17;1.40;;;1.30;;
19664;SDS011;9980;51.020;7.772;2023-04-01T04:43:50;1.40;;;1.30;;
19664;SDS011;9980;51.020;7.772;2023-04-01T04:46:20;1.30;;;1.30;;
19664;SDS011;9980;51.020;7.772;2023-04-01T04:48:52;1.30;;;1.23;;
19664;SDS011;9980;51.020;7.772;2023-04-01T04:51:20;1.47;;;1.30;;
19664;SDS011;9980;51.020;7.772;2023-04-01T04:53:48;1.33;;;1.30;;
19664;SDS011;9980;51.020;7.772;2023-04-01T04:56:20;1.57;;;1.40;;
19664;SDS011;9980;51.020;7.772;2023-04-01T04:59:09;1.87;;;1.43;;
19664;SDS011;9980;51.020;7.772;2023-04-01T05:01:42;1.37;;;1.27;;
19664;SDS011;9980;51.020;7.772;2023-04-01T05:04:09;1.60;;;1.50;;
19664;SDS011;9980;51.020;7.772;2023-04-01T05:06:36;1.40;;;1.30;;
19664;SDS011;9980;51.020;7.772;2023-04-01T05:09:03;1.60;;;1.30;;
19664;SDS011;9980;51.020;7.772;2023-04-01T05:11:30;1.33;;;1.30;;
19664;SDS011;9980;51.020;7.772;2023-04-01T05:13:57;1.20;;;1.20;;
19664;SDS011;9980;51.020;7.772;2023-04-01T05:16:24;1.53;;;1.43;;
19664;SDS011;9980;51.020;7.772;2023-04-01T05:18:51;1.30;;;1.30;;
19664;SDS011;9980;51.020;7.772;2023-04-01T05:21:18;1.40;;;1.40;;
19664;SDS011;9980;51.020;7.772;2023-04-01T05:23:45;1.20;;;1.20;;
19664;SDS011;9980;51.020;7.772;2023-04-01T05:26:13;1.30;;;1.30;;
19664;SDS011;9980;51.020;7.772;2023-04-01T05:28:41;1.13;;;1.13;;
19664;SDS011;9980;51.020;7.772;2023-04-01T05:31:08;1.60;;;1.30;;
19664;SDS011;9980;51.020;7.772;2023-04-01T05:33:41;1.20;;;1.20;;
19664;SDS011;9980;51.020;7.772;2023-04-01T05:36:09;1.63;;;1.30;;
19664;SDS011;9980;51.020;7.772;2023-04-01T05:38:42;1.23;;;1.23;;
19664;SDS011;9980;51.020;7.772;2023-04-01T05:41:11;1.20;;;1.20;;
19664;SDS011;9980;51.020;7.772;2023-04-01T05:43:41;1.50;;;1.40;;
19664;SDS011;9980;51.020;7.772;2023-04-01T05:46:27;1.77;;;1.63;;
19664;SDS011;9980;51.020;7.772;2023-04-01T05:49:17;1.60;;;1.50;;
19664;SDS011;9980;51.020;7.772;2023-04-01T05:51:44;1.83;;;1.73;;
19664;SDS011;9980;51.020;7.772;2023-04-01T05:54:11;1.60;;;1.50;;
19664;SDS011;9980;51.020;7.772;2023-04-01T05:56:38;1.40;;;1.40;;
19664;SDS011;9980;51.020;7.772;2023-04-01T05:59:05;1.37;;;1.30;;
19664;SDS011;9980;51.020;7.772;2023-04-01T06:01:32;1.30;;;1.30;;
19664;SDS011;9980;51.020;7.772;2023-04-01T06:03:59;1.50;;;1.40;;
19664;SDS011;9980;51.020;7.772;2023-04-01T06:06:26;1.60;;;1.50;;
19664;SDS011;9980;51.020;7.772;2023-04-01T06:09:19;1.50;;;1.40;;
19664;SDS011;9980;51.020;7.772;2023-04-01T06:12:04;1.33;;;1.30;;
19664;SDS011;9980;51.020;7.772;2023-04-01T06:15:01;1.30;;;1.30;;
19664;SDS011;9980;51.020;7.772;2023-04-01T06:18:10;2.03;;;1.30;;
19664;SDS011;9980;51.020;7.772;2023-04-01T06:20:59;2.53;;;1.33;;
19664;SDS011;9980;51.020;7.772;2023-04-01T06:30:24;1.20;;;1.20;;
19664;SDS011;9980;51.020;7.772;2023-04-01T06:33:35;1.43;;;1.40;;
19664;SDS011;9980;51.020;7.772;2023-04-01T06:48:45;1.40;;;1.40;;
19664;SDS011;9980;51.020;7.772;2023-04-01T06:51:51;1.77;;;1.50;;
19664;SDS011;9980;51.020;7.772;2023-04-01T06:55:38;1.10;;;1.10;;
19664;SDS011;9980;51.020;7.772;2023-04-01T06:58:42;1.10;;;1.10;;
19664;SDS011;9980;51.020;7.772;2023-04-01T07:01:44;1.20;;;1.20;;
19664;SDS011;9980;51.020;7.772;2023-04-01T07:04:23;1.30;;;1.20;;
19664;SDS011;9980;51.020;7.772;2023-04-01T07:07:01;1.43;;;1.20;;
19664;SDS011;9980;51.020;7.772;2023-04-01T07:09:58;1.53;;;1.10;;
19664;SDS011;9980;51.020;7.772;2023-04-01T07:15:26;1.33;;;1.23;;
19664;SDS011;9980;51.020;7.772;2023-04-01T07:18:14;1.17;;;1.17;;
19664;SDS011;9980;51.020;7.772;2023-04-01T07:20:48;1.20;;;1.20;;
19664;SDS011;9980;51.020;7.772;2023-04-01T07:26:15;1.20;;;1.20;;
19664;SDS011;9980;51.020;7.772;2023-04-01T07:29:09;1.00;;;1.00;;
19664;SDS011;9980;51.020;7.772;2023-04-01T07:34:35;1.20;;;1.20;;
19664;SDS011;9980;51.020;7.772;2023-04-01T07:37:30;1.10;;;1.10;;
19664;SDS011;9980;51.020;7.772;2023-04-01T07:40:13;1.20;;;1.20;;
19664;SDS011;9980;51.020;7.772;2023-04-01T07:46:48;3.03;;;1.23;;
19664;SDS011;9980;51.020;7.772;2023-04-01T07:53:00;1.27;;;1.27;;
19664;SDS011;9980;51.020;7.772;2023-04-01T07:58:36;1.30;;;1.30;;
19664;SDS011;9980;51.020;7.772;2023-04-01T08:04:25;1.40;;;1.30;;
19664;SDS011;9980;51.020;7.772;2023-04-01T08:07:10;1.80;;;1.47;;
19664;SDS011;9980;51.020;7.772;2023-04-01T08:17:08;1.30;;;1.30;;
19664;SDS011;9980;51.020;7.772;2023-04-01T08:20:14;1.23;;;1.23;;
19664;SDS011;9980;51.020;7.772;2023-04-01T08:23:13;1.30;;;1.30;;
19664;SDS011;9980;51.020;7.772;2023-04-01T08:25:52;1.30;;;1.20;;
19664;SDS011;9980;51.020;7.772;2023-04-01T08:28:50;1.20;;;1.20;;
19664;SDS011;9980;51.020;7.772;2023-04-01T08:34:36;1.20;;;1.20;;
19664;SDS011;9980;51.020;7.772;2023-04-01T08:37:15;1.30;;;1.30;;
19664;SDS011;9980;51.020;7.772;2023-04-01T08:39:57;1.20;;;1.20;;
19664;SDS011;9980;51.020;7.772;2023-04-01T08:42:41;1.20;;;1.10;;
19664;SDS011;9980;51.020;7.772;2023-04-01T08:45:48;1.00;;;1.00;;
19664;SDS011;9980;51.020;7.772;2023-04-01T08:54:54;1.10;;;1.10;;
19664;SDS011;9980;51.020;7.772;2023-04-01T09:01:43;1.20;;;1.10;;
19664;SDS011;9980;51.020;7.772;2023-04-01T09:10:59;1.10;;;1.10;;
19664;SDS011;9980;51.020;7.772;2023-04-01T09:20:45;1.10;;;1.10;;
19664;SDS011;9980;51.020;7.772;2023-04-01T09:29:36;1.17;;;1.13;;
19664;SDS011;9980;51.020;7.772;2023-04-01T09:38:29;1.20;;;1.20;;
19664;SDS011;9980;51.020;7.772;2023-04-01T09:41:23;1.20;;;1.20;;
19664;SDS011;9980;51.020;7.772;2023-04-01T09:44:17;1.20;;;1.20;;
19664;SDS011;9980;51.020;7.772;2023-04-01T09:49:55;1.30;;;1.30;;
19664;SDS011;9980;51.020;7.772;2023-04-01T09:55:52;1.40;;;1.40;;
19664;SDS011;9980;51.020;7.772;2023-04-01T10:02:47;1.13;;;1.13;;
19664;SDS011;9980;51.020;7.772;2023-04-01T10:09:27;1.40;;;1.40;;
19664;SDS011;9980;51.020;7.772;2023-04-01T10:18:37;1.20;;;1.20;;
19664;SDS011;9980;51.020;7.772;2023-04-01T10:21:46;1.40;;;1.30;;
19664;SDS011;9980;51.020;7.772;2023-04-01T10:27:41;1.40;;;1.30;;
19664;SDS011;9980;51.020;7.772;2023-04-01T10:30:50;1.20;;;1.20;;
19664;SDS011;9980;51.020;7.772;2023-04-01T10:39:34;1.30;;;1.30;;
19664;SDS011;9980;51.020;7.772;2023-04-01T10:46:14;1.03;;;1.03;;
19664;SDS011;9980;51.020;7.772;2023-04-01T10:49:40;1.70;;;1.60;;
19664;SDS011;9980;51.020;7.772;2023-04-01T11:02:41;1.60;;;1.50;;
19664;SDS011;9980;51.020;7.772;2023-04-01T11:06:07;1.70;;;1.60;;
19664;SDS011;9980;51.020;7.772;2023-04-01T11:09:35;1.90;;;1.80;;
19664;SDS011;9980;51.020;7.772;2023-04-01T11:13:15;1.63;;;1.53;;
19664;SDS011;9980;51.020;7.772;2023-04-01T11:31:54;1.63;;;1.53;;
19664;SDS011;9980;51.020;7.772;2023-04-01T11:34:53;2.10;;;2.00;;
19664;SDS011;9980;51.020;7.772;2023-04-01T11:40:52;1.90;;;1.80;;
19664;SDS011;9980;51.020;7.772;2023-04-01T11:44:24;1.90;;;1.80;;
19664;SDS011;9980;51.020;7.772;2023-04-01T11:56:33;2.37;;;2.27;;
19664;SDS011;9980;51.020;7.772;2023-04-01T12:05:45;2.40;;;2.30;;
19664;SDS011;9980;51.020;7.772;2023-04-01T12:08:34;2.50;;;2.30;;
19664;SDS011;9980;51.020;7.772;2023-04-01T12:17:02;2.17;;;2.07;;
19664;SDS011;9980;51.020;7.772;2023-04-01T12:19:48;2.00;;;1.90;;
19664;SDS011;9980;51.020;7.772;2023-04-01T12:22:34;2.23;;;1.90;;
19664;SDS011;9980;51.020;7.772;2023-04-01T12:28:39;1.97;;;1.87;;
19664;SDS011;9980;51.020;7.772;2023-04-01T12:31:34;1.83;;;1.73;;
19664;SDS011;9980;51.020;7.772;2023-04-01T12:34:42;1.70;;;1.60;;
19664;SDS011;9980;51.020;7.772;2023-04-01T12:37:31;1.80;;;1.70;;
19664;SDS011;9980;51.020;7.772;2023-04-01T12:40:31;1.80;;;1.70;;
19664;SDS011;9980;51.020;7.772;2023-04-01T12:43:27;1.97;;;1.87;;
19664;SDS011;9980;51.020;7.772;2023-04-01T12:46:41;2.20;;;2.10;;
19664;SDS011;9980;51.020;7.772;2023-04-01T12:49:37;2.27;;;1.80;;
19664;SDS011;9980;51.020;7.772;2023-04-01T12:52:41;1.90;;;1.80;;
19664;SDS011;9980;51.020;7.772;2023-04-01T12:55:54;1.90;;;1.80;;
19664;SDS011;9980;51.020;7.772;2023-04-01T13:07:46;2.97;;;2.77;;
19664;SDS011;9980;51.020;7.772;2023-04-01T13:13:21;2.63;;;2.50;;
19664;SDS011;9980;51.020;7.772;2023-04-01T13:16:16;2.97;;;2.77;;
19664;SDS011;9980;51.020;7.772;2023-04-01T13:25:54;2.67;;;2.50;;
19664;SDS011;9980;51.020;7.772;2023-04-01T13:28:41;2.67;;;2.50;;
19664;SDS011;9980;51.020;7.772;2023-04-01T13:31:47;2.07;;;1.97;;
19664;SDS011;9980;51.020;7.772;2023-04-01T13:35:23;3.13;;;2.93;;
19664;SDS011;9980;51.020;7.772;2023-04-01T13:38:13;2.77;;;2.57;;
19664;SDS011;9980;51.020;7.772;2023-04-01T13:46:52;3.23;;;3.03;;
19664;SDS011;9980;51.020;7.772;2023-04-01T13:50:16;3.63;;;3.00;;
19664;SDS011;9980;51.020;7.772;2023-04-01T13:53:11;3.20;;;3.00;;
19664;SDS011;9980;51.020;7.772;2023-04-01T13:56:45;3.30;;;3.10;;
19664;SDS011;9980;51.020;7.772;2023-04-01T14:00:00;3.60;;;3.40;;
19664;SDS011;9980;51.020;7.772;2023-04-01T14:03:03;4.37;;;3.30;;
19664;SDS011;9980;51.020;7.772;2023-04-01T14:06:14;3.50;;;3.30;;
19664;SDS011;9980;51.020;7.772;2023-04-01T14:09:29;3.90;;;3.60;;
19664;SDS011;9980;51.020;7.772;2023-04-01T14:12:12;3.70;;;3.50;;
19664;SDS011;9980;51.020;7.772;2023-04-01T14:18:24;4.07;;;3.73;;
19664;SDS011;9980;51.020;7.772;2023-04-01T14:21:31;4.00;;;3.70;;
19664;SDS011;9980;51.020;7.772;2023-04-01T14:24:23;4.00;;;3.70;;
19664;SDS011;9980;51.020;7.772;2023-04-01T14:30:05;3.50;;;3.30;;
19664;SDS011;9980;51.020;7.772;2023-04-01T14:33:06;3.00;;;2.80;;
19664;SDS011;9980;51.020;7.772;2023-04-01T14:38:39;2.90;;;2.70;;
19664;SDS011;9980;51.020;7.772;2023-04-01T14:41:59;2.80;;;2.60;;
19664;SDS011;9980;51.020;7.772;2023-04-01T14:47:53;3.13;;;2.87;;
19664;SDS011;9980;51.020;7.772;2023-04-01T14:50:42;2.83;;;2.63;;
19664;SDS011;9980;51.020;7.772;2023-04-01T14:55:50;2.87;;;2.67;;
19664;SDS011;9980;51.020;7.772;2023-04-01T14:58:45;3.13;;;2.93;;
19664;SDS011;9980;51.020;7.772;2023-04-01T15:07:40;2.40;;;2.30;;
19664;SDS011;9980;51.020;7.772;2023-04-01T15:16:55;2.90;;;2.57;;
19664;SDS011;9980;51.020;7.772;2023-04-01T15:22:23;2.37;;;2.27;;
19664;SDS011;9980;51.020;7.772;2023-04-01T15:33:39;2.57;;;2.47;;
19664;SDS011;9980;51.020;7.772;2023-04-01T15:45:31;2.77;;;2.57;;
19664;SDS011;9980;51.020;7.772;2023-04-01T15:54:23;2.63;;;2.53;;
19664;SDS011;9980;51.020;7.772;2023-04-01T15:57:45;4.83;;;2.50;;
19664;SDS011;9980;51.020;7.772;2023-04-01T16:01:09;2.37;;;2.27;;
19664;SDS011;9980;51.020;7.772;2023-04-01T16:07:30;3.00;;;2.47;;
19664;SDS011;9980;51.020;7.772;2023-04-01T16:10:23;2.40;;;2.30;;
19664;SDS011;9980;51.020;7.772;2023-04-01T16:16:19;2.10;;;2.00;;
19664;SDS011;9980;51.020;7.772;2023-04-01T16:21:57;2.30;;;2.20;;
19664;SDS011;9980;51.020;7.772;2023-04-01T16:24:48;2.30;;;2.20;;
19664;SDS011;9980;51.020;7.772;2023-04-01T16:27:43;2.67;;;2.50;;
19664;SDS011;9980;51.020;7.772;2023-04-01T16:33:46;2.70;;;2.60;;
19664;SDS011;9980;51.020;7.772;2023-04-01T16:36:43;2.97;;;2.77;;
19664;SDS011;9980;51.020;7.772;2023-04-01T16:39:32;3.10;;;2.90;;
19664;SDS011;9980;51.020;7.772;2023-04-01T16:42:51;3.13;;;2.93;;
19664;SDS011;9980;51.020;7.772;2023-04-01T16:45:43;3.03;;;2.83;;
19664;SDS011;9980;51.020;7.772;2023-04-01T16:57:25;3.10;;;2.90;;
19664;SDS011;9980;51.020;7.772;2023-04-01T17:03:26;3.33;;;3.13;;
19664;SDS011;9980;51.020;7.772;2023-04-01T17:14:55;3.70;;;3.17;;
19664;SDS011;9980;51.020;7.772;2023-04-01T17:20:28;3.47;;;3.17;;
19664;SDS011;9980;51.020;7.772;2023-04-01T17:26:06;3.33;;;3.13;;
19664;SDS011;9980;51.020;7.772;2023-04-01T17:29:12;3.70;;;3.40;;
19664;SDS011;9980;51.020;7.772;2023-04-01T17:32:03;3.53;;;3.27;;
19664;SDS011;9980;51.020;7.772;2023-04-01T17:35:16;3.30;;;3.10;;
19664;SDS011;9980;51.020;7.772;2023-04-01T17:37:55;3.47;;;3.27;;
19664;SDS011;9980;51.020;7.772;2023-04-01T17:44:12;3.47;;;3.23;;
19664;SDS011;9980;51.020;7.772;2023-04-01T17:46:58;3.00;;;2.80;;
19664;SDS011;9980;51.020;7.772;2023-04-01T17:49:41;3.20;;;3.00;;
19664;SDS011;9980;51.020;7.772;2023-04-01T17:58:17;3.63;;;3.43;;
19664;SDS011;9980;51.020;7.772;2023-04-01T18:13:05;3.40;;;3.20;;
19664;SDS011;9980;51.020;7.772;2023-04-01T18:15:55;3.57;;;3.37;;
19664;SDS011;9980;51.020;7.772;2023-04-01T18:25:19;3.27;;;3.07;;
19664;SDS011;9980;51.020;7.772;2023-04-01T18:31:33;3.40;;;3.20;;
19664;SDS011;9980;51.020;7.772;2023-04-01T18:34:17;3.30;;;3.10;;
19664;SDS011;9980;51.020;7.772;2023-04-01T18:37:00;2.80;;;2.60;;
19664;SDS011;9980;51.020;7.772;2023-04-01T18:40:15;2.73;;;2.53;;
19664;SDS011;9980;51.020;7.772;2023-04-01T18:47:03;3.10;;;2.90;;
19664;SDS011;9980;51.020;7.772;2023-04-01T18:50:27;3.40;;;3.10;;
19664;SDS011;9980;51.020;7.772;2023-04-01T18:56:01;2.97;;;2.77;;
19664;SDS011;9980;51.020;7.772;2023-04-01T19:04:12;2.90;;;2.70;;
19664;SDS011;9980;51.020;7.772;2023-04-01T19:06:55;2.77;;;2.67;;
19664;SDS011;9980;51.020;7.772;2023-04-01T19:09:42;2.47;;;2.37;;
19664;SDS011;9980;51.020;7.772;2023-04-01T19:12:22;2.63;;;2.43;;
19664;SDS011;9980;51.020;7.772;2023-04-01T19:15:33;2.30;;;2.20;;
19664;SDS011;9980;51.020;7.772;2023-04-01T19:18:42;2.77;;;2.57;;
19664;SDS011;9980;51.020;7.772;2023-04-01T19:27:21;3.10;;;2.90;;
19664;SDS011;9980;51.020;7.772;2023-04-01T19:30:10;2.80;;;2.67;;
19664;SDS011;9980;51.020;7.772;2023-04-01T19:32:51;3.33;;;3.07;;
19664;SDS011;9980;51.020;7.772;2023-04-01T19:36:03;3.10;;;2.90;;
19664;SDS011;9980;51.020;7.772;2023-04-01T19:38:52;2.83;;;2.73;;
19664;SDS011;9980;51.020;7.772;2023-04-01T19:41:49;2.77;;;2.57;;
19664;SDS011;9980;51.020;7.772;2023-04-01T19:44:30;3.37;;;2.87;;
19664;SDS011;9980;51.020;7.772;2023-04-01T19:47:36;2.80;;;2.63;;
19664;SDS011;9980;51.020;7.772;2023-04-01T19:51:05;2.83;;;2.73;;
19664;SDS011;9980;51.020;7.772;2023-04-01T19:53:38;3.13;;;2.93;;
19664;SDS011;9980;51.020;7.772;2023-04-01T19:56:25;3.77;;;2.80;;
19664;SDS011;9980;51.020;7.772;2023-04-01T19:59:11;3.13;;;2.93;;
19664;SDS011;9980;51.020;7.772;2023-04-01T20:04:35;3.20;;;3.00;;
19664;SDS011;9980;51.020;7.772;2023-04-01T20:07:23;3.43;;;2.73;;
19664;SDS011;9980;51.020;7.772;2023-04-01T20:16:50;3.10;;;2.80;;
19664;SDS011;9980;51.020;7.772;2023-04-01T20:19:41;3.03;;;2.83;;
19664;SDS011;9980;51.020;7.772;2023-04-01T20:50:52;3.70;;;2.90;;
19664;SDS011;9980;51.020;7.772;2023-04-01T20:53:36;3.03;;;2.83;;
19664;SDS011;9980;51.020;7.772;2023-04-01T20:56:27;3.33;;;2.90;;
19664;SDS011;9980;51.020;7.772;2023-04-01T20:59:09;2.60;;;2.50;;
19664;SDS011;9980;51.020;7.772;2023-04-01T21:11:18;2.40;;;2.30;;
19664;SDS011;9980;51.020;7.772;2023-04-01T21:17:11;3.17;;;2.50;;
19664;SDS011;9980;51.020;7.772;2023-04-01T21:20:13;2.83;;;2.70;;
19664;SDS011;9980;51.020;7.772;2023-04-01T21:26:12;3.10;;;2.90;;
19664;SDS011;9980;51.020;7.772;2023-04-01T21:34:40;4.50;;;4.20;;
19664;SDS011;9980;51.020;7.772;2023-04-01T21:37:31;3.97;;;3.67;;
19664;SDS011;9980;51.020;7.772;2023-04-01T21:40:24;3.50;;;3.30;;
19664;SDS011;9980;51.020;7.772;2023-04-01T22:01:01;2.90;;;2.70;;
19664;SDS011;9980;51.020;7.772;2023-04-01T22:07:20;2.70;;;2.50;;
19664;SDS011;9980;51.020;7.772;2023-04-01T22:10:38;2.60;;;2.50;;
19664;SDS011;9980;51.020;7.772;2023-04-01T22:13:06;3.60;;;2.80;;
19664;SDS011;9980;51.020;7.772;2023-04-01T22:15:50;2.30;;;2.20;;
19664;SDS011;9980;51.020;7.772;2023-04-01T22:18:30;2.87;;;2.67;;
19664;SDS011;9980;51.020;7.772;2023-04-01T22:24:04;2.80;;;2.60;;
19664;SDS011;9980;51.020;7.772;2023-04-01T22:26:50;2.23;;;2.13;;
19664;SDS011;9980;51.020;7.772;2023-04-01T22:29:35;3.03;;;2.83;;
19664;SDS011;9980;51.020;7.772;2023-04-01T22:35:12;4.10;;;3.80;;
19664;SDS011;9980;51.020;7.772;2023-04-01T22:52:49;4.43;;;4.13;;
19664;SDS011;9980;51.020;7.772;2023-04-01T22:55:32;4.40;;;4.10;;
19664;SDS011;9980;51.020;7.772;2023-04-01T22:58:25;5.33;;;4.93;;
19664;SDS011;9980;51.020;7.772;2023-04-01T23:01:05;4.90;;;4.50;;
19664;SDS011;9980;51.020;7.772;2023-04-01T23:03:41;5.63;;;5.13;;
19664;SDS011;9980;51.020;7.772;2023-04-01T23:06:15;6.07;;;5.57;;
19664;SDS011;9980;51.020;7.772;2023-04-01T23:16:49;6.63;;;6.03;;
19664;SDS011;9980;51.020;7.772;2023-04-01T23:19:29;5.77;;;4.47;;
19664;SDS011;9980;51.020;7.772;2023-04-01T23:22:21;5.80;;;5.30;;
19664;SDS011;9980;51.020;7.772;2023-04-01T23:28:08;5.40;;;4.90;;
19664;SDS011;9980;51.020;7.772;2023-04-01T23:35:57;5.33;;;4.83;;
19664;SDS011;9980;51.020;7.772;2023-04-01T23:38:40;5.10;;;4.70;;
19664;SDS011;9980;51.020;7.772;2023-04-01T23:41:20;5.23;;;4.83;;
19664;SDS011;9980;51.020;7.772;2023-04-01T23:44:00;6.33;;;5.73;;
19664;SDS011;9980;51.020;7.772;2023-04-01T23:46:35;5.47;;;4.97;;
19664;SDS011;9980;51.020;7.772;2023-04-01T23:49:06;5.30;;;4.87;;
19664;SDS011;9980;51.020;7.772;2023-04-01T23:51:49;4.77;;;4.37;;
19664;SDS011;9980;51.020;7.772;2023-04-01T23:54:39;4.77;;;4.37;;
19664;SDS011;9980;51.020;7.772;2023-04-01T23:57:19;4.70;;;4.30;;
